Time;durP1;ratioP1;P1;durP2;ratioP2;P2;SDS_P1;SDS_P2;PMS_P1;PMS_P2;Temp;Humidity;BMP_temperature;BMP_pressure;BME280_temperature;BME280_humidity;BME280_pressure;Samples;Min_cycle;Max_cycle;Signal;HPM_P1;HPM_P2
2024/02/26 00:00:16;;;;;;;2.20;0.73;;;;;;;1.81;98.11;99916.78;5033462;28;20445;-67
2024/02/26 00:02:43;;;;;;;1.93;0.70;;;;;;;1.82;99.14;99913.06;5033379;28;20459;-67
2024/02/26 00:05:10;;;;;;;1.90;0.67;;;;;;;1.88;98.48;99909.34;5033002;28;20922;-67
2024/02/26 00:07:37;;;;;;;3.03;1.20;;;;;;;1.94;98.29;99899.47;5033738;28;20524;-68
2024/02/26 00:10:06;;;;;;;4.47;1.30;;;;;;;1.97;97.67;99910.47;5033348;28;20447;-68
2024/02/26 00:12:33;;;;;;;3.70;0.90;;;;;;;1.94;97.89;99899.47;5033301;28;20538;-69
2024/02/26 00:15:00;;;;;;;2.60;0.70;;;;;;;2.02;97.38;99894.44;5033465;28;20482;-69
2024/02/26 00:17:27;;;;;;;1.90;0.80;;;;;;;1.88;98.17;99895.19;5033306;28;20479;-67
2024/02/26 00:19:53;;;;;;;2.40;1.13;;;;;;;1.76;98.55;99887.41;5033598;28;20447;-67
2024/02/26 00:22:21;;;;;;;4.73;1.60;;;;;;;1.74;98.53;99898.34;5037166;28;20466;-67
2024/02/26 00:24:48;;;;;;;2.83;1.13;;;;;;;1.71;99.26;99896.19;5037548;28;20552;-67
2024/02/26 00:27:16;;;;;;;2.20;1.17;;;;;;;1.75;99.29;99891.94;5037118;28;20475;-67
2024/02/26 00:29:43;;;;;;;2.20;0.90;;;;;;;1.73;99.08;99887.94;5037703;28;20478;-67
2024/02/26 00:32:09;;;;;;;2.03;0.90;;;;;;;1.63;97.38;99882.53;5036744;28;20463;-67
2024/02/26 00:34:36;;;;;;;2.53;0.90;;;;;;;1.59;96.78;99887.56;5037009;28;20497;-67
2024/02/26 00:37:03;;;;;;;1.87;0.83;;;;;;;1.61;96.73;99884.66;5037481;28;20792;-67
2024/02/26 00:39:29;;;;;;;1.60;0.40;;;;;;;1.69;94.93;99882.31;5037118;28;20537;-67
2024/02/26 00:41:56;;;;;;;2.37;1.17;;;;;;;1.64;94.26;99878.78;5036497;28;20990;-67
2024/02/26 00:44:24;;;;;;;4.23;1.80;;;;;;;1.53;95.94;99877.94;5036772;28;20490;-67
2024/02/26 00:46:51;;;;;;;1.80;0.60;;;;;;;1.56;96.59;99872.09;5037267;28;20446;-67
2024/02/26 00:49:18;;;;;;;3.93;1.10;;;;;;;1.62;96.99;99883.59;5036741;28;20443;-67
2024/02/26 00:51:44;;;;;;;2.57;1.43;;;;;;;1.60;96.37;99878.53;5036732;28;20478;-67
2024/02/26 00:54:11;;;;;;;3.53;1.00;;;;;;;1.42;96.89;99881.63;5059398;22;21015;-67
2024/02/26 00:56:37;;;;;;;1.70;0.67;;;;;;;1.45;96.80;99881.88;5056991;28;20442;-66
2024/02/26 00:59:04;;;;;;;5.47;1.67;;;;;;;1.53;97.32;99872.59;5056530;28;20953;-66
2024/02/26 01:01:32;;;;;;;2.00;0.77;;;;;;;1.49;98.32;99868.84;5056506;28;20438;-67
2024/02/26 01:03:59;;;;;;;2.87;1.53;;;;;;;1.50;98.05;99867.78;5036339;28;20529;-66
2024/02/26 01:06:26;;;;;;;2.27;1.10;;;;;;;1.40;96.13;99873.84;5036808;28;20521;-66
2024/02/26 01:08:52;;;;;;;2.00;1.13;;;;;;;1.35;96.07;99870.38;5036846;28;20525;-67
2024/02/26 01:11:19;;;;;;;4.60;1.40;;;;;;;1.21;96.33;99870.81;5036663;28;20466;-67
2024/02/26 01:13:45;;;;;;;4.50;1.80;;;;;;;1.22;96.56;99869.75;5036177;28;20466;-67
2024/02/26 01:16:12;;;;;;;1.60;0.50;;;;;;;1.33;96.62;99880.47;5036469;28;20449;-67
2024/02/26 01:18:40;;;;;;;1.80;0.60;;;;;;;1.21;96.68;99876.16;5035826;28;20454;-67
2024/02/26 01:21:08;;;;;;;1.97;1.13;;;;;;;1.17;97.84;99867.06;5036158;28;20439;-67
2024/02/26 01:23:35;;;;;;;3.33;1.30;;;;;;;1.20;97.71;99869.22;5035907;28;20963;-67
2024/02/26 01:26:02;;;;;;;2.47;0.70;;;;;;;1.24;97.50;99869.50;5035714;28;20478;-66
2024/02/26 01:28:29;;;;;;;1.70;0.60;;;;;;;1.31;97.82;99874.59;5036323;28;20439;-66
2024/02/26 01:30:55;;;;;;;3.30;0.97;;;;;;;1.29;96.31;99866.06;5035459;28;20896;-66
2024/02/26 01:33:22;;;;;;;2.53;1.47;;;;;;;1.35;95.68;99868.50;5035791;28;20494;-67
2024/02/26 01:35:50;;;;;;;2.07;0.80;;;;;;;1.37;96.58;99869.03;5035618;28;20979;-67
2024/02/26 01:38:17;;;;;;;3.03;1.87;;;;;;;1.31;97.81;99874.59;5036118;28;20493;-67
2024/02/26 01:40:44;;;;;;;2.43;1.33;;;;;;;1.34;97.76;99872.22;5035844;28;20530;-67
2024/02/26 01:43:11;;;;;;;1.60;0.50;;;;;;;1.35;97.75;99860.50;5035467;28;20467;-67
2024/02/26 01:45:37;;;;;;;1.90;0.70;;;;;;;1.29;97.84;99861.53;5035698;28;20578;-67
2024/02/26 01:48:05;;;;;;;4.47;1.13;;;;;;;1.26;99.00;99859.38;5035761;28;20528;-66
2024/02/26 01:50:34;;;;;;;2.50;1.17;;;;;;;1.27;99.01;99861.78;5035638;28;20453;-67
2024/02/26 01:53:02;;;;;;;1.70;0.70;;;;;;;1.38;98.34;99861.84;5035590;28;20982;-67
2024/02/26 01:55:29;;;;;;;4.40;1.43;;;;;;;1.42;98.21;99862.94;5035514;28;20971;-67
2024/02/26 01:57:56;;;;;;;1.77;0.63;;;;;;;1.37;98.76;99873.56;5036110;28;20438;-68
2024/02/26 02:00:23;;;;;;;2.23;1.23;;;;;;;1.34;98.50;99864.22;5035308;28;20442;-68
2024/02/26 02:02:50;;;;;;;3.80;0.73;;;;;;;1.25;98.37;99866.56;5035049;28;21024;-68
2024/02/26 02:05:18;;;;;;;2.30;1.10;;;;;;;1.17;99.24;99864.38;5035356;28;20575;-68
2024/02/26 02:07:44;;;;;;;3.27;1.37;;;;;;;1.20;99.11;99861.22;5035817;28;20443;-67
2024/02/26 02:10:13;;;;;;;1.90;0.90;;;;;;;1.12;96.64;99856.34;5035288;28;20475;-68
2024/02/26 02:12:39;;;;;;;1.70;0.70;;;;;;;1.14;97.03;99859.56;5035560;28;20880;-68
2024/02/26 02:15:07;;;;;;;2.87;1.00;;;;;;;1.25;96.72;99855.91;5034872;28;20530;-68
2024/02/26 02:17:34;;;;;;;2.70;1.30;;;;;;;1.15;97.17;99861.19;5035077;28;20518;-68
2024/02/26 02:20:00;;;;;;;1.80;0.87;;;;;;;1.11;97.52;99859.28;5035259;28;20514;-68
2024/02/26 02:22:28;;;;;;;2.60;1.30;;;;;;;1.08;97.55;99865.91;5034686;28;20463;-68
2024/02/26 02:24:55;;;;;;;3.00;0.90;;;;;;;1.05;97.02;99861.09;5034694;28;20483;-68
2024/02/26 02:27:22;;;;;;;5.07;1.70;;;;;;;1.12;96.59;99863.56;5034927;28;20463;-68
2024/02/26 02:29:49;;;;;;;3.73;1.73;;;;;;;0.97;96.24;99856.22;5034852;28;20443;-68
2024/02/26 02:32:18;;;;;;;2.67;0.90;;;;;;;1.03;96.55;99867.75;5034813;28;20494;-67
2024/02/26 02:34:45;;;;;;;2.80;1.23;;;;;;;1.04;96.86;99858.69;5035167;28;20435;-67
2024/02/26 02:37:12;;;;;;;4.07;0.93;;;;;;;0.93;96.75;99868.47;5034403;28;20446;-71
2024/02/26 02:39:42;;;;;;;1.60;0.50;;;;;;;0.97;97.29;99865.06;5034436;28;20955;-67
2024/02/26 02:42:08;;;;;;;3.63;1.50;;;;;;;0.94;96.70;99862.91;5034569;28;20517;-66
2024/02/26 02:44:35;;;;;;;1.90;1.00;;;;;;;0.94;96.07;99862.09;5033779;28;20515;-67
2024/02/26 02:47:01;;;;;;;3.90;1.33;;;;;;;0.91;96.66;99860.72;5034548;28;20526;-67
2024/02/26 02:49:28;;;;;;;2.40;1.43;;;;;;;0.92;97.24;99862.31;5034525;28;20529;-67
2024/02/26 02:51:57;;;;;;;2.73;1.20;;;;;;;0.97;97.88;99867.72;5034573;28;20459;-66
2024/02/26 02:54:23;;;;;;;1.70;0.60;;;;;;;0.99;97.72;99867.47;5034147;28;20475;-66
2024/02/26 02:56:51;;;;;;;2.40;1.23;;;;;;;0.99;97.29;99867.47;5034687;28;20471;-66
2024/02/26 02:59:18;;;;;;;2.60;1.17;;;;;;;0.98;97.54;99868.53;5034743;28;20534;-66
2024/02/26 03:01:45;;;;;;;2.27;1.27;;;;;;;1.01;97.16;99865.31;5034633;28;20475;-67
2024/02/26 03:04:11;;;;;;;1.60;0.50;;;;;;;1.08;97.19;99875.78;5034449;28;20917;-66
2024/02/26 03:06:38;;;;;;;1.77;0.70;;;;;;;0.93;99.13;99871.13;5034789;28;20436;-67
2024/02/26 03:09:05;;;;;;;5.77;2.83;;;;;;;1.02;98.96;99866.97;5034573;28;20522;-67
2024/02/26 03:11:31;;;;;;;7.60;1.80;;;;;;;1.07;98.47;99864.31;5034230;28;20438;-67
2024/02/26 03:13:59;;;;;;;1.70;0.63;;;;;;;1.06;98.52;99876.03;5034189;28;20538;-67
2024/02/26 03:16:26;;;;;;;1.97;0.87;;;;;;;1.04;98.82;99880.81;5034023;28;20531;-67
2024/02/26 03:18:53;;;;;;;1.90;0.97;;;;;;;1.03;98.28;99881.88;5034099;28;20458;-66
2024/02/26 03:21:19;;;;;;;2.10;0.90;;;;;;;1.05;98.10;99874.44;5033898;28;20916;-67
2024/02/26 03:23:46;;;;;;;3.03;1.07;;;;;;;1.06;97.82;99873.34;5034230;28;20545;-67
2024/02/26 03:26:14;;;;;;;1.70;0.67;;;;;;;1.05;97.53;99869.09;5034245;28;20585;-67
2024/02/26 03:28:41;;;;;;;2.57;0.60;;;;;;;0.90;95.80;99869.78;5034215;28;20525;-66
2024/02/26 03:31:10;;;;;;;2.97;1.50;;;;;;;0.78;95.58;99863.81;5033856;28;20439;-66
2024/02/26 03:33:37;;;;;;;2.30;1.00;;;;;;;0.77;96.25;99858.75;5033731;28;20478;-66
2024/02/26 03:36:04;;;;;;;2.17;0.90;;;;;;;0.78;97.14;99863.03;5033808;28;20525;-66
2024/02/26 03:38:31;;;;;;;2.53;1.47;;;;;;;0.78;97.45;99868.34;5033722;28;20435;-66
2024/02/26 03:40:57;;;;;;;1.67;0.50;;;;;;;0.83;96.99;99865.72;5033417;28;20450;-66
2024/02/26 03:43:24;;;;;;;2.03;1.00;;;;;;;0.88;96.93;99876.41;5033754;28;20461;-66
2024/02/26 03:45:51;;;;;;;2.43;1.00;;;;;;;0.78;97.05;99866.50;5033609;28;20494;-66
2024/02/26 03:48:19;;;;;;;4.23;1.37;;;;;;;0.81;97.25;99875.84;5033879;28;20439;-66
2024/02/26 03:50:45;;;;;;;2.23;1.30;;;;;;;0.86;97.57;99883.88;5033228;28;20888;-66
2024/02/26 03:53:12;;;;;;;1.70;0.57;;;;;;;0.78;97.14;99881.69;5033600;28;20483;-66
2024/02/26 03:55:41;;;;;;;2.40;1.47;;;;;;;0.67;96.63;99881.59;5033941;28;20430;-66
2024/02/26 03:58:08;;;;;;;1.80;0.60;;;;;;;0.66;97.00;99879.97;5034063;28;20791;-66
2024/02/26 04:00:34;;;;;;;2.03;0.93;;;;;;;0.74;96.80;99887.50;5033948;28;20449;-66
2024/02/26 04:03:01;;;;;;;1.80;0.70;;;;;;;0.80;96.82;99898.22;5033562;28;20507;-66
2024/02/26 04:05:29;;;;;;;6.90;1.23;;;;;;;0.85;96.92;99892.94;5034009;28;20478;-66
2024/02/26 04:07:56;;;;;;;2.53;1.37;;;;;;;0.80;97.96;99895.53;5033771;28;20439;-66
2024/02/26 04:10:23;;;;;;;1.73;0.73;;;;;;;0.80;98.38;99895.53;5033492;28;20983;-66
2024/02/26 04:12:49;;;;;;;2.57;1.27;;;;;;;0.74;97.77;99890.16;5033443;28;20463;-66
2024/02/26 04:15:16;;;;;;;2.40;1.00;;;;;;;0.69;97.49;99890.13;5033707;28;20526;-67
2024/02/26 04:17:43;;;;;;;1.80;0.83;;;;;;;0.79;97.22;99893.94;5033164;28;20451;-67
2024/02/26 04:20:15;;;;;;;3.50;1.00;;;;;;;0.70;97.88;99899.72;5033345;28;20439;-68
2024/02/26 04:22:43;;;;;;;3.87;1.43;;;;;;;0.66;97.36;99906.63;5033696;28;20527;-68
2024/02/26 04:25:10;;;;;;;1.60;0.53;;;;;;;0.69;97.21;99911.44;5033265;28;20522;-68
2024/02/26 04:27:38;;;;;;;1.73;0.63;;;;;;;0.69;97.43;99905.31;5033765;28;20529;-68
2024/02/26 04:30:06;;;;;;;4.10;1.53;;;;;;;0.67;97.03;99910.91;5033702;28;20446;-68
2024/02/26 04:32:32;;;;;;;7.00;2.13;;;;;;;0.65;97.00;99912.22;5033413;28;20477;-68
2024/02/26 04:34:59;;;;;;;2.10;0.60;;;;;;;0.71;97.71;99922.69;5033091;28;20526;-68
2024/02/26 04:37:30;;;;;;;4.63;2.00;;;;;;;0.71;98.49;99920.00;5033370;28;20526;-68
2024/02/26 04:39:58;;;;;;;4.00;1.80;;;;;;;0.73;98.63;99917.88;5033955;28;20424;-68
2024/02/26 04:42:25;;;;;;;3.00;1.80;;;;;;;0.69;99.60;99916.78;5033533;28;20459;-68
2024/02/26 04:44:52;;;;;;;2.10;1.27;;;;;;;0.77;99.82;99922.72;5033365;28;20498;-68
2024/02/26 04:47:18;;;;;;;2.37;1.20;;;;;;;0.82;99.74;99920.91;5033855;28;20820;-68
2024/02/26 04:49:45;;;;;;;3.30;1.77;;;;;;;0.87;99.50;99918.28;5033880;28;20526;-68
2024/02/26 04:52:12;;;;;;;3.67;1.70;;;;;;;0.89;99.32;99920.72;5033112;28;21005;-68
2024/02/26 04:54:39;;;;;;;5.53;1.70;;;;;;;0.79;99.57;99926.72;5033169;28;20998;-68
2024/02/26 04:57:07;;;;;;;1.90;0.70;;;;;;;0.77;100.00;99922.72;5033809;28;20935;-69
2024/02/26 04:59:34;;;;;;;3.60;1.37;;;;;;;0.77;100.00;99928.06;5033580;28;20530;-69
2024/02/26 05:02:00;;;;;;;4.03;1.07;;;;;;;0.74;100.00;99924.81;5032677;28;20971;-68
2024/02/26 05:04:27;;;;;;;1.60;0.50;;;;;;;0.80;100.00;99923.03;5033393;28;20462;-68
2024/02/26 05:06:54;;;;;;;3.70;2.40;;;;;;;0.87;99.99;99928.94;5034302;28;20558;-68
2024/02/26 05:09:21;;;;;;;2.73;1.10;;;;;;;0.81;99.99;99937.16;5036494;28;20497;-68
2024/02/26 05:11:47;;;;;;;2.47;1.37;;;;;;;0.74;99.77;99940.81;5036629;28;20526;-68
2024/02/26 05:14:15;;;;;;;1.90;0.70;;;;;;;0.73;99.44;99947.19;5036400;28;20474;-68
2024/02/26 05:16:42;;;;;;;1.77;0.67;;;;;;;0.80;98.67;99948.84;5036807;28;20438;-68
2024/02/26 05:19:08;;;;;;;2.03;1.17;;;;;;;0.80;97.72;99944.34;5036939;28;20870;-68
2024/02/26 05:21:35;;;;;;;2.80;1.03;;;;;;;0.72;97.49;99945.59;5037621;28;20526;-68
2024/02/26 05:24:02;;;;;;;4.00;1.93;;;;;;;0.70;97.65;99954.88;5036271;28;20948;-68
2024/02/26 05:26:29;;;;;;;2.20;1.13;;;;;;;0.64;97.70;99951.38;5036289;28;20506;-68
2024/02/26 05:28:59;;;;;;;2.67;1.43;;;;;;;0.59;97.61;99948.66;5036225;28;20438;-68
2024/02/26 05:31:28;;;;;;;1.60;0.43;;;;;;;0.57;96.83;99945.44;5036199;28;20461;-68
2024/02/26 05:33:55;;;;;;;2.23;0.70;;;;;;;0.56;97.42;99954.47;5036011;28;20566;-68
2024/02/26 05:36:23;;;;;;;2.37;1.17;;;;;;;0.55;97.68;99952.09;5036010;28;20473;-68
2024/02/26 05:38:49;;;;;;;2.30;1.23;;;;;;;0.61;97.58;99959.88;5036145;28;20447;-68
2024/02/26 05:41:20;;;;;;;7.53;2.00;;;;;;;0.58;97.28;99963.06;5036302;28;20522;-68
2024/02/26 05:43:46;;;;;;;2.10;1.10;;;;;;;0.55;97.79;99962.75;5035885;28;20573;-68
2024/02/26 05:46:13;;;;;;;1.87;0.60;;;;;;;0.56;97.65;99957.16;5036008;28;20850;-68
2024/02/26 05:48:41;;;;;;;2.07;0.80;;;;;;;0.58;98.03;99963.06;5035764;28;20543;-68
2024/02/26 05:51:08;;;;;;;2.90;1.37;;;;;;;0.58;97.67;99968.38;5035422;28;20443;-68
2024/02/26 05:53:34;;;;;;;3.03;1.70;;;;;;;0.57;97.21;99963.28;5035311;28;20478;-68
2024/02/26 05:56:01;;;;;;;2.50;1.37;;;;;;;0.58;98.53;99972.91;5035773;28;20900;-68
2024/02/26 05:58:27;;;;;;;14.10;2.63;;;;;;;0.67;98.42;99980.19;5035867;28;20462;-68
2024/02/26 06:00:54;;;;;;;2.80;0.83;;;;;;;0.69;99.20;99977.28;5035132;28;20443;-68
2024/02/26 06:03:21;;;;;;;2.93;1.20;;;;;;;0.71;98.96;99981.31;5035444;28;20630;-68
2024/02/26 06:05:49;;;;;;;3.83;1.27;;;;;;;0.73;99.38;99981.84;5035266;28;20490;-68
2024/02/26 06:08:15;;;;;;;3.30;1.33;;;;;;;0.70;99.86;99987.66;5034850;28;20494;-68
2024/02/26 06:10:42;;;;;;;2.50;1.07;;;;;;;0.75;99.89;99985.09;5035261;28;20830;-69
2024/02/26 06:13:08;;;;;;;2.20;0.70;;;;;;;0.71;100.00;99980.50;5035408;28;20513;-68
2024/02/26 06:15:35;;;;;;;3.40;1.30;;;;;;;0.77;100.00;99992.03;5035707;28;20446;-68
2024/02/26 06:18:02;;;;;;;2.63;1.00;;;;;;;0.70;100.00;99990.34;5034217;28;20444;-68
2024/02/26 06:20:28;;;;;;;3.43;1.00;;;;;;;0.74;100.00;99988.78;5035149;28;20466;-68
2024/02/26 06:22:56;;;;;;;1.80;0.70;;;;;;;0.66;100.00;99994.56;5034766;28;20970;-69
2024/02/26 06:25:23;;;;;;;4.30;2.20;;;;;;;0.73;100.00;99992.50;5034831;28;20491;-71
2024/02/26 06:27:50;;;;;;;1.63;0.57;;;;;;;0.70;100.00;99994.88;5035304;28;20502;-68
2024/02/26 06:30:16;;;;;;;2.40;1.13;;;;;;;0.78;100.00;99994.44;5035133;28;20525;-69
2024/02/26 06:32:43;;;;;;;1.63;0.50;;;;;;;0.71;100.00;99999.16;5034894;28;20467;-69
2024/02/26 06:35:11;;;;;;;5.53;2.70;;;;;;;0.80;100.00;100000.31;5034794;28;20813;-69
2024/02/26 06:37:38;;;;;;;3.63;0.90;;;;;;;0.86;100.00;100001.16;5034452;28;20443;-69
2024/02/26 06:40:08;;;;;;;1.80;0.60;;;;;;;0.95;99.86;100011.13;5034682;28;20786;-69
2024/02/26 06:42:34;;;;;;;4.43;1.90;;;;;;;0.92;98.85;100013.50;5034565;28;20458;-69
2024/02/26 06:45:01;;;;;;;2.03;1.07;;;;;;;0.89;98.51;100012.16;5034855;28;20478;-69
2024/02/26 06:47:27;;;;;;;4.30;1.57;;;;;;;0.86;99.73;100017.97;5034909;28;20454;-70
2024/02/26 06:49:57;;;;;;;4.63;1.80;;;;;;;1.03;99.30;100017.06;5034852;28;20443;-69
2024/02/26 06:52:24;;;;;;;3.17;1.50;;;;;;;1.07;99.54;100016.31;5034598;28;20861;-69
2024/02/26 06:54:52;;;;;;;2.77;1.10;;;;;;;1.09;99.70;100016.84;5060307;22;20508;-69
2024/02/26 06:57:20;;;;;;;1.97;1.27;;;;;;;1.12;99.67;100016.38;5053981;28;20947;-69
2024/02/26 06:59:47;;;;;;;3.40;1.20;;;;;;;1.19;100.00;100022.28;5054292;28;20521;-70
2024/02/26 07:02:14;;;;;;;4.43;1.40;;;;;;;1.19;100.00;100022.28;5054069;28;20472;-70
2024/02/26 07:04:40;;;;;;;5.67;2.80;;;;;;;1.21;100.00;100038.84;5054525;28;20450;-70
2024/02/26 07:07:08;;;;;;;1.60;0.57;;;;;;;1.27;100.00;100034.34;5054203;28;20482;-70
2024/02/26 07:09:35;;;;;;;3.00;1.23;;;;;;;1.44;100.00;100039.59;5054586;28;20474;-70
2024/02/26 07:12:01;;;;;;;2.57;1.37;;;;;;;1.44;100.00;100042.25;5053642;28;20494;-70
2024/02/26 07:14:29;;;;;;;6.17;1.70;;;;;;;1.51;100.00;100046.31;5054127;28;20446;-70
2024/02/26 07:16:56;;;;;;;2.33;0.97;;;;;;;1.63;100.00;100038.13;5054084;28;20440;-69
2024/02/26 07:19:23;;;;;;;4.37;2.43;;;;;;;1.77;100.00;100050.00;5053622;28;20885;-70
2024/02/26 07:21:49;;;;;;;2.73;1.70;;;;;;;1.81;100.00;100041.47;5054170;28;20480;-70
2024/02/26 07:24:16;;;;;;;2.83;1.23;;;;;;;1.96;100.00;100045.06;5054199;28;20466;-70
2024/02/26 07:26:42;;;;;;;2.73;1.40;;;;;;;2.04;100.00;100041.09;5054028;28;20517;-70
2024/02/26 07:29:09;;;;;;;2.77;1.60;;;;;;;2.16;100.00;100047.03;5053309;28;20492;-70
2024/02/26 07:31:37;;;;;;;2.20;1.13;;;;;;;2.25;100.00;100045.47;5053642;28;20470;-70
2024/02/26 07:34:04;;;;;;;6.90;2.37;;;;;;;2.40;100.00;100044.78;5053904;28;20977;-70
2024/02/26 07:36:30;;;;;;;5.97;2.90;;;;;;;2.57;100.00;100051.78;5054027;28;20473;-70
2024/02/26 07:38:57;;;;;;;3.17;1.50;;;;;;;2.74;100.00;100050.50;5053665;28;20449;-70
2024/02/26 07:41:23;;;;;;;5.20;2.47;;;;;;;2.89;100.00;100044.41;5053924;28;20519;-70
2024/02/26 07:43:50;;;;;;;2.30;1.10;;;;;;;3.06;100.00;100046.88;5053622;28;20541;-70
2024/02/26 07:46:17;;;;;;;8.80;1.63;;;;;;;3.17;100.00;100045.81;5053541;28;20997;-70
2024/02/26 07:48:45;;;;;;;3.13;1.50;;;;;;;3.33;100.00;100037.81;5053816;28;20462;-69
2024/02/26 07:51:13;;;;;;;4.70;2.00;;;;;;;3.48;100.00;100035.13;5053601;28;20466;-68
2024/02/26 07:53:40;;;;;;;3.47;2.07;;;;;;;3.63;100.00;100037.81;5053150;28;20464;-68
2024/02/26 07:56:07;;;;;;;3.73;1.63;;;;;;;3.75;100.00;100034.84;5053857;28;20419;-69
2024/02/26 07:58:34;;;;;;;3.50;2.10;;;;;;;3.88;100.00;100036.19;5053404;28;20450;-68
2024/02/26 08:01:00;;;;;;;3.97;2.50;;;;;;;4.04;100.00;100035.09;5053779;28;20445;-68
2024/02/26 08:03:27;;;;;;;3.60;1.87;;;;;;;4.20;100.00;100047.38;5053270;28;20462;-68
2024/02/26 08:05:54;;;;;;;5.33;2.70;;;;;;;4.28;100.00;100048.69;5053002;28;20492;-68
2024/02/26 08:08:21;;;;;;;6.60;3.93;;;;;;;4.43;100.00;100045.19;5053229;28;21004;-68
2024/02/26 08:10:48;;;;;;;8.40;3.33;;;;;;;4.53;100.00;100051.31;5052925;28;20481;-68
2024/02/26 08:13:14;;;;;;;7.10;3.33;;;;;;;4.66;100.00;100046.44;5052837;28;20463;-66
2024/02/26 08:15:41;;;;;;;4.27;1.97;;;;;;;4.75;100.00;100050.94;5053291;28;20470;-69
2024/02/26 08:18:08;;;;;;;7.83;3.00;;;;;;;4.85;100.00;100047.41;5053157;28;20475;-70
2024/02/26 08:20:35;;;;;;;8.50;2.80;;;;;;;4.98;100.00;100062.09;5053828;28;20449;-70
2024/02/26 08:23:03;;;;;;;11.43;3.20;;;;;;;5.07;100.00;100066.63;5053495;28;20458;-69
2024/02/26 08:25:29;;;;;;;4.37;2.23;;;;;;;5.21;100.00;100066.78;5053121;28;20533;-72
2024/02/26 08:27:56;;;;;;;4.67;2.40;;;;;;;5.30;100.00;100065.13;5052794;28;20481;-72
2024/02/26 08:30:23;;;;;;;7.07;4.53;;;;;;;5.43;100.00;100068.28;5053154;28;20448;-70
2024/02/26 08:32:49;;;;;;;5.57;2.97;;;;;;;5.55;100.00;100071.41;5053232;28;20490;-67
2024/02/26 08:35:16;;;;;;;6.40;2.60;;;;;;;5.66;100.00;100066.75;5053579;28;20446;-69
2024/02/26 08:37:45;;;;;;;5.93;2.90;;;;;;;5.76;100.00;100062.13;5053333;28;20529;-68
2024/02/26 08:40:13;;;;;;;4.63;2.53;;;;;;;5.81;100.00;100062.06;5053000;28;20530;-69
2024/02/26 08:42:40;;;;;;;6.87;2.77;;;;;;;5.90;100.00;100066.84;5055977;28;20541;-69
2024/02/26 08:45:08;;;;;;;5.10;2.00;;;;;;;5.97;100.00;100067.31;5056841;28;20456;-69
2024/02/26 08:47:34;;;;;;;5.63;3.23;;;;;;;6.07;100.00;100054.59;5056383;28;20858;-68
2024/02/26 08:50:01;;;;;;;6.33;3.50;;;;;;;6.17;100.00;100053.69;5056755;28;20474;-68
2024/02/26 08:52:28;;;;;;;9.60;5.03;;;;;;;6.29;100.00;100058.69;5056622;28;20481;-68
2024/02/26 08:54:55;;;;;;;4.23;2.03;;;;;;;6.41;100.00;100059.06;5056331;28;20544;-68
2024/02/26 08:57:23;;;;;;;7.90;3.73;;;;;;;6.50;100.00;100060.03;5056650;28;20926;-68
2024/02/26 08:59:50;;;;;;;8.43;4.17;;;;;;;6.57;100.00;100057.03;5057061;28;20860;-68
2024/02/26 09:02:17;;;;;;;6.13;3.63;;;;;;;6.65;99.91;100063.66;5056431;28;20465;-68
2024/02/26 09:04:44;;;;;;;5.20;2.73;;;;;;;6.73;99.62;100050.38;5056533;28;20480;-68
2024/02/26 09:07:10;;;;;;;5.60;3.13;;;;;;;6.82;99.41;100054.03;5056431;28;20513;-68
2024/02/26 09:09:37;;;;;;;10.80;4.00;;;;;;;6.93;99.04;100056.56;5056796;28;20462;-68
2024/02/26 09:12:04;;;;;;;8.13;4.07;;;;;;;7.05;98.46;100054.25;5056492;28;20553;-68
2024/02/26 09:14:32;;;;;;;15.87;4.87;;;;;;;7.11;97.96;100061.16;5056295;28;20485;-68
2024/02/26 09:16:59;;;;;;;10.00;5.00;;;;;;;7.16;97.81;100053.00;5056251;28;20526;-68
2024/02/26 09:19:27;;;;;;;7.40;3.03;;;;;;;7.26;97.31;100058.28;5056171;28;20442;-69
2024/02/26 09:21:57;;;;;;;10.30;4.63;;;;;;;7.42;97.02;100066.91;5056427;28;20465;-68
2024/02/26 09:24:23;;;;;;;5.87;3.63;;;;;;;7.55;96.66;100063.47;5055915;28;20556;-68
2024/02/26 09:26:50;;;;;;;9.07;5.07;;;;;;;7.69;95.96;100058.13;5056165;28;20560;-68
2024/02/26 09:29:17;;;;;;;8.20;4.80;;;;;;;7.77;94.61;100065.56;5055581;28;20440;-68
2024/02/26 09:31:47;;;;;;;9.53;3.33;;;;;;;7.83;93.25;100069.78;5055527;28;20446;-68
2024/02/26 09:34:13;;;;;;;9.40;4.87;;;;;;;7.78;91.26;100083.31;5056231;28;20450;-68
2024/02/26 09:36:40;;;;;;;6.73;4.40;;;;;;;7.81;90.66;100071.97;5056113;28;20440;-68
2024/02/26 09:39:11;;;;;;;9.07;4.10;;;;;;;7.83;90.23;100079.75;5056396;28;20439;-68
2024/02/26 09:41:38;;;;;;;9.20;4.33;;;;;;;7.81;89.80;100077.34;5055721;28;20429;-69
2024/02/26 09:44:06;;;;;;;8.00;3.70;;;;;;;7.77;89.03;100065.56;5055750;28;20495;-69
2024/02/26 09:46:33;;;;;;;4.77;3.03;;;;;;;7.80;89.81;100078.44;5055670;28;20564;-69
2024/02/26 09:49:01;;;;;;;8.47;3.87;;;;;;;7.86;89.84;100081.84;5055745;28;20445;-70
2024/02/26 09:51:28;;;;;;;7.10;3.83;;;;;;;7.85;90.19;100074.88;5055854;28;20438;-68
2024/02/26 09:53:57;;;;;;;8.10;3.73;;;;;;;7.96;90.36;100076.28;5055254;28;20478;-69
2024/02/26 09:56:24;;;;;;;8.00;3.73;;;;;;;8.04;90.08;100082.91;5055525;28;20429;-69
2024/02/26 09:58:54;;;;;;;12.47;4.90;;;;;;;8.09;89.13;100090.91;5055765;28;20525;-68
2024/02/26 10:01:21;;;;;;;11.57;3.67;;;;;;;8.15;88.68;100076.25;5056104;28;20437;-68
2024/02/26 10:03:55;;;;;;;5.57;3.83;;;;;;;8.26;88.75;100088.44;5055317;28;20462;-68
2024/02/26 10:06:25;;;;;;;6.40;3.40;;;;;;;8.39;88.57;100092.28;5054921;28;20425;-68
2024/02/26 10:08:53;;;;;;;8.07;3.93;;;;;;;8.43;87.92;100087.91;5055376;28;20819;-68
2024/02/26 10:11:20;;;;;;;10.57;5.10;;;;;;;8.56;87.61;100089.81;5054939;28;21034;-68
2024/02/26 10:13:46;;;;;;;8.90;4.20;;;;;;;8.68;87.42;100092.00;5055302;28;20486;-68
2024/02/26 10:16:13;;;;;;;9.60;3.70;;;;;;;8.82;87.25;100090.09;5055137;28;20462;-68
2024/02/26 10:18:47;;;;;;;10.57;5.60;;;;;;;8.97;86.93;100090.88;5055167;28;20529;-69
2024/02/26 10:21:15;;;;;;;9.67;4.53;;;;;;;9.08;85.13;100092.28;5055000;28;20434;-69
2024/02/26 10:23:43;;;;;;;11.40;4.30;;;;;;;9.23;85.01;100091.94;5055670;28;20548;-69
2024/02/26 10:26:11;;;;;;;10.10;4.57;;;;;;;9.35;84.21;100089.50;5055117;28;20472;-69
2024/02/26 10:28:38;;;;;;;8.37;4.77;;;;;;;9.51;83.60;100089.94;5055628;28;20443;-68
2024/02/26 10:31:05;;;;;;;10.40;4.17;;;;;;;9.60;83.19;100098.91;5054972;28;20481;-69
2024/02/26 10:33:33;;;;;;;8.60;4.50;;;;;;;9.75;83.03;100096.97;5054725;28;20516;-69
2024/02/26 10:36:00;;;;;;;8.60;4.87;;;;;;;9.89;82.24;100096.91;5055189;28;20435;-69
2024/02/26 10:38:27;;;;;;;6.43;3.87;;;;;;;9.96;80.52;100094.56;5054996;28;20438;-69
2024/02/26 10:40:55;;;;;;;11.03;5.67;;;;;;;10.02;80.53;100098.75;5054337;28;20442;-68
2024/02/26 10:43:21;;;;;;;9.60;4.40;;;;;;;10.14;80.13;100101.69;5054789;28;20573;-68
2024/02/26 10:45:48;;;;;;;10.37;5.13;;;;;;;10.25;79.21;100097.63;5054841;28;20437;-68
2024/02/26 10:48:16;;;;;;;12.97;5.03;;;;;;;10.34;78.67;100109.28;5054394;28;20904;-68
2024/02/26 10:50:43;;;;;;;15.40;5.07;;;;;;;10.41;77.94;100099.94;5054213;28;20442;-68
2024/02/26 10:53:16;;;;;;;8.13;5.07;;;;;;;10.48;77.40;100103.00;5054562;28;20497;-68
2024/02/26 10:55:46;;;;;;;8.80;4.70;;;;;;;10.60;75.88;100101.28;5054111;28;20454;-69
2024/02/26 10:58:15;;;;;;;8.83;4.33;;;;;;;10.62;75.40;100092.84;5054086;28;20936;-68
2024/02/26 11:00:42;;;;;;;9.00;4.80;;;;;;;10.76;75.09;100092.75;5053996;28;20478;-68
2024/02/26 11:03:10;;;;;;;8.10;4.60;;;;;;;10.82;73.02;100092.28;5054271;28;20493;-68
2024/02/26 11:05:37;;;;;;;8.30;3.90;;;;;;;10.88;71.41;100090.22;5053643;28;20521;-69
2024/02/26 11:08:05;;;;;;;8.90;4.60;;;;;;;10.97;72.36;100095.66;5054070;28;20481;-68
2024/02/26 11:10:33;;;;;;;8.60;4.33;;;;;;;11.05;72.98;100092.16;5054161;28;20462;-68
2024/02/26 11:13:02;;;;;;;9.17;4.97;;;;;;;11.06;71.65;100086.44;5054039;28;20482;-68
2024/02/26 11:15:32;;;;;;;8.27;3.63;;;;;;;11.21;71.92;100090.63;5054325;28;20445;-68
2024/02/26 11:18:00;;;;;;;11.30;5.30;;;;;;;11.41;73.16;100088.38;5053775;28;20462;-68
2024/02/26 11:20:30;;;;;;;7.40;4.20;;;;;;;11.53;71.42;100096.69;5054022;28;20469;-68
2024/02/26 11:22:56;;;;;;;7.70;3.30;;;;;;;11.69;71.54;100103.25;5054104;28;20458;-68
2024/02/26 11:25:23;;;;;;;6.90;3.77;;;;;;;11.78;70.24;100103.22;5054186;28;20474;-69
2024/02/26 11:27:56;;;;;;;6.50;3.70;;;;;;;11.94;70.23;100095.41;5053496;28;20513;-68
2024/02/26 11:30:26;;;;;;;6.83;3.67;;;;;;;11.99;68.95;100098.75;5054048;28;20477;-68
2024/02/26 11:32:54;;;;;;;4.77;3.20;;;;;;;12.09;68.58;100101.13;5053653;28;20895;-68